Time;durP1;ratioP1;P1;durP2;ratioP2;P2;SDS_P1;SDS_P2;PMS_P1;PMS_P2;Temp;Humidity;BMP_temperature;BMP_pressure;BME280_temperature;BME280_humidity;BME280_pressure;Samples;Min_cycle;Max_cycle;Signal;HPM_P1;HPM_P2
2021/03/10 00:02:24;;;;;;;12.17;2.73;;;20.70;99.90;;;;;;5033078;28;20396;-82
2021/03/10 00:04:51;;;;;;;12.53;2.60;;;21.10;99.90;;;;;;5050625;28;20992;-83
2021/03/10 00:07:18;;;;;;;13.82;2.60;;;22.30;99.90;;;;;;5051004;28;20433;-83
2021/03/10 00:09:45;;;;;;;12.10;2.78;;;22.50;99.90;;;;;;5050365;28;20383;-83
2021/03/10 00:12:12;;;;;;;12.20;2.50;;;22.30;99.90;;;;;;5050490;28;20463;-82
2021/03/10 00:14:39;;;;;;;12.30;2.90;;;22.10;99.90;;;;;;5050432;28;20472;-83
2021/03/10 00:17:06;;;;;;;13.90;2.72;;;21.90;99.90;;;;;;5031874;28;20780;-83
2021/03/10 00:19:33;;;;;;;10.43;2.63;;;21.90;99.90;;;;;;5050184;28;20463;-83
2021/03/10 00:22:00;;;;;;;15.80;2.95;;;22.00;99.90;;;;;;5050510;28;20388;-84
2021/03/10 00:24:26;;;;;;;11.57;2.58;;;22.10;99.90;;;;;;5050503;28;20421;-83
2021/03/10 00:26:54;;;;;;;11.80;2.25;;;22.90;99.90;;;;;;5050431;28;20920;-83
2021/03/10 00:29:20;;;;;;;11.85;2.70;;;23.50;99.90;;;;;;5050585;28;20398;-83
2021/03/10 00:31:47;;;;;;;12.02;2.70;;;24.30;99.90;;;;;;5051362;28;20807;-83
2021/03/10 00:34:14;;;;;;;8.20;2.22;;;24.60;99.90;;;;;;5050992;28;20384;-82
2021/03/10 00:36:41;;;;;;;12.93;2.50;;;24.40;99.90;;;;;;5068266;28;20478;-83
2021/03/10 00:39:08;;;;;;;11.13;2.58;;;24.10;99.90;;;;;;5070397;28;20388;-83
2021/03/10 00:41:35;;;;;;;11.90;2.72;;;24.10;99.90;;;;;;5070495;28;20389;-83
2021/03/10 00:44:02;;;;;;;13.38;2.20;;;24.80;99.90;;;;;;5070196;28;20478;-83
2021/03/10 00:46:29;;;;;;;6.97;2.05;;;25.40;99.90;;;;;;5070221;28;21999;-84
2021/03/10 00:48:56;;;;;;;9.82;2.10;;;25.20;99.90;;;;;;5070313;28;20397;-84
2021/03/10 00:51:23;;;;;;;12.02;2.63;;;25.50;99.90;;;;;;5070372;28;20876;-84
2021/03/10 00:53:50;;;;;;;7.55;1.95;;;26.10;99.50;;;;;;5068905;28;20386;-83
2021/03/10 00:56:17;;;;;;;9.90;2.35;;;25.90;99.20;;;;;;5070184;28;20417;-83
2021/03/10 00:58:44;;;;;;;9.77;1.92;;;24.90;99.90;;;;;;5071632;28;20370;-82
2021/03/10 01:01:12;;;;;;;8.57;2.03;;;24.10;99.90;;;;;;5081576;28;20399;-83
2021/03/10 01:03:39;;;;;;;10.18;2.10;;;23.40;99.90;;;;;;5090472;28;20458;-83
2021/03/10 01:06:06;;;;;;;11.00;2.15;;;23.10;99.90;;;;;;5077814;28;20386;-84
2021/03/10 01:08:33;;;;;;;10.68;2.20;;;23.10;99.90;;;;;;5069580;28;20386;-84
2021/03/10 01:11:00;;;;;;;10.45;2.22;;;23.00;99.90;;;;;;5069442;28;20383;-84
2021/03/10 01:13:27;;;;;;;11.75;2.22;;;23.00;99.90;;;;;;5069767;28;20366;-82
2021/03/10 01:15:54;;;;;;;12.00;2.70;;;22.80;99.90;;;;;;5069589;28;20397;-82
2021/03/10 01:18:22;;;;;;;11.23;2.23;;;22.60;99.90;;;;;;5069688;28;20370;-83
2021/03/10 01:20:49;;;;;;;10.70;2.15;;;22.70;99.90;;;;;;5068786;28;20480;-83
2021/03/10 01:23:16;;;;;;;8.57;2.15;;;22.90;99.90;;;;;;5069319;28;20369;-83
2021/03/10 01:25:43;;;;;;;9.52;2.00;;;23.30;99.90;;;;;;5069230;28;20465;-83
2021/03/10 01:28:10;;;;;;;8.38;2.30;;;23.40;99.90;;;;;;5068804;28;20443;-83
2021/03/10 01:30:40;;;;;;;12.50;3.15;;;23.70;99.90;;;;;;5069130;28;20488;-83
2021/03/10 01:33:07;;;;;;;7.80;1.92;;;23.80;99.90;;;;;;5069590;28;20463;-83
2021/03/10 01:35:34;;;;;;;7.97;2.38;;;23.70;99.90;;;;;;5068525;28;20856;-83
2021/03/10 01:38:01;;;;;;;13.00;2.65;;;23.50;99.90;;;;;;5069049;28;20389;-82
2021/03/10 01:40:28;;;;;;;6.45;1.88;;;23.60;99.90;;;;;;5069333;28;20358;-85
2021/03/10 01:43:00;;;;;;;8.50;2.42;;;24.00;99.90;;;;;;5069260;28;20469;-83
2021/03/10 01:45:27;;;;;;;10.00;2.30;;;24.60;99.90;;;;;;5068666;28;20362;-83
2021/03/10 01:47:54;;;;;;;10.73;2.00;;;24.60;99.90;;;;;;5068539;28;20879;-84
2021/03/10 01:50:22;;;;;;;11.88;2.55;;;24.40;99.90;;;;;;5068598;28;20937;-84
2021/03/10 01:52:49;;;;;;;15.40;2.67;;;24.30;99.90;;;;;;5068902;28;20487;-83
2021/03/10 01:55:16;;;;;;;10.93;2.37;;;24.10;99.90;;;;;;5076050;28;20403;-84
2021/03/10 01:57:44;;;;;;;10.38;2.20;;;24.00;99.90;;;;;;5085494;28;20390;-83
2021/03/10 02:00:11;;;;;;;5.40;1.55;;;24.00;99.90;;;;;;5068797;28;20376;-84
2021/03/10 02:02:38;;;;;;;7.47;2.25;;;23.90;99.90;;;;;;5068914;28;20397;-83
2021/03/10 02:05:07;;;;;;;7.60;2.13;;;23.80;99.90;;;;;;5067278;28;20373;-84
2021/03/10 02:08:02;;;;;;;9.38;2.50;;;23.80;99.90;;;;;;5067512;28;20467;-84
2021/03/10 02:11:02;;;;;;;8.90;2.30;;;23.90;99.90;;;;;;5068681;28;20386;-84
2021/03/10 02:13:59;;;;;;;7.82;1.88;;;24.30;99.90;;;;;;5048570;28;20380;-83
2021/03/10 02:16:51;;;;;;;6.60;1.83;;;24.70;99.90;;;;;;5048370;28;20443;-83
2021/03/10 02:19:18;;;;;;;7.45;1.80;;;24.90;99.90;;;;;;5048453;28;20368;-83
2021/03/10 02:22:22;;;;;;;9.07;2.00;;;24.70;99.90;;;;;;5053896;28;20472;-83
2021/03/10 02:25:10;;;;;;;9.15;2.30;;;24.10;99.90;;;;;;5072524;28;20414;-82
2021/03/10 02:27:49;;;;;;;6.35;1.98;;;24.10;99.90;;;;;;5071383;28;20881;-82
2021/03/10 02:30:51;;;;;;;6.33;1.60;;;23.80;99.90;;;;;;5067934;28;20469;-83
2021/03/10 02:33:26;;;;;;;10.63;2.50;;;23.40;99.90;;;;;;5054775;28;20394;-83
2021/03/10 02:36:18;;;;;;;9.73;2.08;;;23.20;99.90;;;;;;5067990;28;20417;-83
2021/03/10 02:38:52;;;;;;;9.23;1.93;;;23.40;99.90;;;;;;5048096;28;20396;-83
2021/03/10 02:41:21;;;;;;;8.38;2.40;;;23.50;99.90;;;;;;5051242;28;20416;-82
2021/03/10 02:43:52;;;;;;;7.78;2.40;;;23.60;99.90;;;;;;5068182;28;20362;-82
2021/03/10 02:46:20;;;;;;;9.20;2.20;;;23.80;99.90;;;;;;5048165;28;20418;-82
2021/03/10 02:48:49;;;;;;;10.10;2.00;;;23.80;99.90;;;;;;5074811;28;20405;-83
2021/03/10 02:51:17;;;;;;;12.38;2.65;;;23.60;99.90;;;;;;5086886;28;20398;-83
2021/03/10 02:53:46;;;;;;;10.48;2.33;;;23.40;99.90;;;;;;5086851;28;20405;-83
2021/03/10 02:56:14;;;;;;;9.95;2.67;;;23.20;99.90;;;;;;5088406;28;21989;-83
2021/03/10 02:58:44;;;;;;;9.65;2.70;;;23.20;99.90;;;;;;5088371;28;20365;-82
2021/03/10 03:01:13;;;;;;;7.60;2.25;;;23.40;99.90;;;;;;5088195;28;20368;-82
2021/03/10 03:03:40;;;;;;;10.02;2.25;;;23.50;99.90;;;;;;5068260;28;20443;-82
2021/03/10 03:06:07;;;;;;;9.65;2.50;;;23.60;99.90;;;;;;5067852;28;20511;-82
2021/03/10 03:08:35;;;;;;;9.50;2.58;;;23.60;99.90;;;;;;5067579;28;20378;-82
2021/03/10 03:11:03;;;;;;;11.57;2.90;;;23.60;99.90;;;;;;5067909;28;20438;-82
2021/03/10 03:13:32;;;;;;;10.57;2.70;;;23.60;99.90;;;;;;5067938;28;20850;-82
2021/03/10 03:16:01;;;;;;;11.80;2.60;;;23.60;99.90;;;;;;5067064;28;20417;-82
2021/03/10 03:18:30;;;;;;;11.27;2.50;;;23.50;99.90;;;;;;5066283;28;20865;-81
2021/03/10 03:21:00;;;;;;;12.57;2.65;;;23.60;99.90;;;;;;5100288;28;20527;-82
2021/03/10 03:23:28;;;;;;;9.95;2.85;;;23.80;99.90;;;;;;5067900;28;20378;-83
2021/03/10 03:25:56;;;;;;;11.10;2.95;;;23.90;99.90;;;;;;5067694;28;20363;-82
2021/03/10 03:28:27;;;;;;;10.38;2.75;;;24.00;99.90;;;;;;5067197;28;20379;-82
2021/03/10 03:30:56;;;;;;;10.27;2.53;;;24.20;99.90;;;;;;5067472;28;20877;-82
2021/03/10 03:33:28;;;;;;;10.10;2.63;;;24.00;99.90;;;;;;5068219;28;20354;-82
2021/03/10 03:35:58;;;;;;;13.02;2.70;;;23.80;99.90;;;;;;5067255;28;20955;-82
2021/03/10 03:38:27;;;;;;;10.10;2.87;;;23.40;99.90;;;;;;5066435;28;20377;-82
2021/03/10 03:40:55;;;;;;;11.48;2.90;;;23.20;99.90;;;;;;5067311;28;20776;-82
2021/03/10 03:43:27;;;;;;;13.10;3.05;;;23.30;99.90;;;;;;5067237;28;20394;-82
2021/03/10 03:45:55;;;;;;;7.35;2.45;;;23.40;99.90;;;;;;5071003;28;20378;-81
2021/03/10 03:48:23;;;;;;;5.70;2.20;;;23.60;99.90;;;;;;5070983;28;20378;-82
2021/03/10 03:50:50;;;;;;;8.10;2.80;;;23.60;99.90;;;;;;5071168;28;20861;-82
2021/03/10 03:53:17;;;;;;;9.65;2.75;;;23.50;99.90;;;;;;5071280;28;20412;-82
2021/03/10 03:55:44;;;;;;;12.00;3.03;;;23.50;99.90;;;;;;5070953;28;20459;-83
2021/03/10 03:58:11;;;;;;;9.32;2.40;;;23.50;99.90;;;;;;5070546;28;20888;-83
2021/03/10 04:00:38;;;;;;;9.23;2.78;;;23.70;99.90;;;;;;5070724;28;20362;-81
2021/03/10 04:03:05;;;;;;;11.70;2.90;;;23.50;99.90;;;;;;5070475;28;20746;-82
2021/03/10 04:05:32;;;;;;;8.67;2.63;;;23.50;99.90;;;;;;5067981;28;20501;-82
2021/03/10 04:08:00;;;;;;;8.57;2.30;;;23.70;99.90;;;;;;5069906;28;20402;-82
2021/03/10 04:10:38;;;;;;;10.57;2.73;;;24.00;99.90;;;;;;5070643;28;20382;-83
2021/03/10 04:13:05;;;;;;;10.35;2.42;;;23.90;99.00;;;;;;5071636;28;20406;-82
2021/03/10 04:15:34;;;;;;;10.90;2.88;;;23.60;99.80;;;;;;5072160;28;20419;-82
2021/03/10 04:18:01;;;;;;;11.10;2.35;;;23.40;99.90;;;;;;5070809;28;20458;-81
2021/03/10 04:20:28;;;;;;;13.73;2.47;;;23.30;99.90;;;;;;5069992;28;20375;-82
2021/03/10 04:22:55;;;;;;;12.30;2.63;;;23.20;99.90;;;;;;5067983;28;20398;-82
2021/03/10 04:25:22;;;;;;;13.30;2.55;;;23.40;99.90;;;;;;5070603;28;20485;-82
2021/03/10 04:27:49;;;;;;;12.73;2.83;;;23.40;99.90;;;;;;5070552;28;20398;-82
2021/03/10 04:30:17;;;;;;;11.13;2.63;;;23.20;99.90;;;;;;5070207;28;20476;-84
2021/03/10 04:32:44;;;;;;;8.70;2.60;;;23.30;99.90;;;;;;5070279;28;20443;-83
2021/03/10 04:35:12;;;;;;;11.85;2.50;;;23.30;99.90;;;;;;5069674;28;20429;-83
2021/03/10 04:37:40;;;;;;;12.63;2.72;;;23.30;99.90;;;;;;5069828;28;20386;-85
2021/03/10 04:40:09;;;;;;;10.75;2.63;;;23.40;99.90;;;;;;5070396;28;20939;-83
2021/03/10 04:42:36;;;;;;;9.43;3.03;;;23.30;99.90;;;;;;5070135;28;20386;-81
2021/03/10 04:45:07;;;;;;;10.18;2.95;;;23.20;99.90;;;;;;5070236;28;20462;-84
2021/03/10 04:47:35;;;;;;;11.85;2.63;;;23.30;99.90;;;;;;5069731;28;20430;-84
2021/03/10 04:50:03;;;;;;;10.23;2.67;;;23.10;99.90;;;;;;5070078;28;20367;-84
2021/03/10 04:52:30;;;;;;;9.63;2.50;;;22.80;99.90;;;;;;5070534;28;20544;-84
2021/03/10 04:54:57;;;;;;;13.35;3.05;;;22.80;99.90;;;;;;5070485;28;20473;-84
2021/03/10 04:57:24;;;;;;;13.43;2.70;;;23.00;99.90;;;;;;5070368;28;20488;-83
2021/03/10 04:59:51;;;;;;;12.27;2.65;;;23.20;99.90;;;;;;5069783;28;20385;-84
2021/03/10 05:02:18;;;;;;;12.93;3.05;;;23.40;99.90;;;;;;5070528;28;20393;-83
2021/03/10 05:04:44;;;;;;;8.18;2.75;;;23.40;99.90;;;;;;5068432;28;20370;-83
2021/03/10 05:07:11;;;;;;;12.27;3.20;;;23.30;99.90;;;;;;5069616;28;20413;-83
2021/03/10 05:09:38;;;;;;;14.10;2.78;;;23.30;99.90;;;;;;5070059;28;20869;-83
2021/03/10 05:12:06;;;;;;;10.02;2.60;;;23.10;99.90;;;;;;5069768;28;20861;-83
2021/03/10 05:14:33;;;;;;;12.50;2.47;;;22.90;99.90;;;;;;5069460;28;20371;-83
2021/03/10 05:17:00;;;;;;;9.63;2.80;;;22.90;99.90;;;;;;5069530;28;20398;-84
2021/03/10 05:19:27;;;;;;;7.80;2.35;;;23.00;99.90;;;;;;5069468;28;20448;-83
2021/03/10 05:21:55;;;;;;;10.60;2.70;;;23.00;99.90;;;;;;5069073;28;20506;-83
2021/03/10 05:24:22;;;;;;;7.53;2.60;;;23.20;99.90;;;;;;5067990;28;20408;-83
2021/03/10 05:26:49;;;;;;;7.93;2.33;;;23.30;99.90;;;;;;5069338;28;20393;-82
2021/03/10 05:29:16;;;;;;;11.48;2.58;;;23.10;99.90;;;;;;5069331;28;20473;-82
2021/03/10 05:31:43;;;;;;;13.73;2.88;;;22.80;99.90;;;;;;5069444;28;20856;-82
2021/03/10 05:34:10;;;;;;;11.60;2.75;;;22.50;99.90;;;;;;5069807;28;20378;-83
2021/03/10 05:36:37;;;;;;;11.68;2.88;;;22.20;99.90;;;;;;5069503;28;20496;-83
2021/03/10 05:39:05;;;;;;;12.95;2.85;;;22.20;99.90;;;;;;5070318;28;20920;-83
2021/03/10 05:41:32;;;;;;;11.50;2.90;;;22.40;99.90;;;;;;5069503;28;20741;-83
2021/03/10 05:44:00;;;;;;;11.93;2.70;;;22.80;99.90;;;;;;5069870;28;20374;-82
2021/03/10 05:46:27;;;;;;;11.67;2.83;;;22.90;99.90;;;;;;5070109;28;20919;-83
2021/03/10 05:48:54;;;;;;;9.83;2.67;;;23.10;99.90;;;;;;5069937;28;20381;-82
2021/03/10 05:51:21;;;;;;;12.27;2.80;;;23.20;99.90;;;;;;5069116;28;20467;-83
2021/03/10 05:53:50;;;;;;;14.02;2.80;;;23.10;99.90;;;;;;5069244;28;20768;-83
2021/03/10 05:56:17;;;;;;;11.50;2.97;;;22.80;99.90;;;;;;5068970;28;20401;-82
2021/03/10 05:58:55;;;;;;;11.88;2.95;;;22.60;99.90;;;;;;5068358;28;20809;-82
2021/03/10 06:01:22;;;;;;;14.00;3.08;;;22.30;99.90;;;;;;5068606;28;20401;-82
2021/03/10 06:03:53;;;;;;;12.10;2.90;;;22.20;99.90;;;;;;5064722;28;21082;-83
2021/03/10 06:06:20;;;;;;;10.93;2.78;;;22.20;99.90;;;;;;5061045;28;20390;-83
2021/03/10 06:08:47;;;;;;;8.80;2.28;;;22.20;99.90;;;;;;5068331;28;20414;-83
2021/03/10 06:11:27;;;;;;;11.73;2.78;;;22.10;99.90;;;;;;5068581;28;20392;-82
2021/03/10 06:13:55;;;;;;;13.50;3.03;;;21.90;99.90;;;;;;5068052;28;20461;-84
2021/03/10 06:16:26;;;;;;;13.35;3.10;;;21.80;99.90;;;;;;5069772;28;20402;-83
2021/03/10 06:19:06;;;;;;;13.25;3.15;;;21.80;99.90;;;;;;5070359;28;20398;-83
2021/03/10 06:21:33;;;;;;;13.88;2.85;;;21.60;99.90;;;;;;5069109;28;20449;-84
2021/03/10 06:24:03;;;;;;;12.77;2.90;;;21.50;99.90;;;;;;5081210;28;20864;-84
2021/03/10 06:26:35;;;;;;;15.48;2.92;;;21.50;99.90;;;;;;5077893;28;20403;-82
2021/03/10 06:29:13;;;;;;;15.95;2.97;;;21.50;99.90;;;;;;5079422;28;20902;-82
2021/03/10 06:31:41;;;;;;;11.13;2.78;;;21.50;99.90;;;;;;5086225;28;20849;-82
2021/03/10 06:34:10;;;;;;;11.55;3.17;;;21.60;99.90;;;;;;5077809;28;20871;-83
2021/03/10 06:36:41;;;;;;;12.93;2.78;;;21.60;99.90;;;;;;5071627;28;20414;-83
2021/03/10 06:39:11;;;;;;;12.67;2.33;;;21.70;99.90;;;;;;5068742;28;20726;-82
2021/03/10 06:41:43;;;;;;;11.85;2.60;;;21.70;99.90;;;;;;5077149;28;20422;-83
2021/03/10 06:44:23;;;;;;;13.40;2.88;;;21.70;99.90;;;;;;5077237;28;20387;-82
2021/03/10 06:47:06;;;;;;;10.02;3.20;;;21.60;99.90;;;;;;5077720;28;20392;-82
2021/03/10 06:49:34;;;;;;;11.35;2.47;;;21.70;99.90;;;;;;5079462;28;20432;-82
2021/03/10 06:52:11;;;;;;;10.48;3.03;;;21.50;99.90;;;;;;5067953;28;20401;-83
2021/03/10 06:54:38;;;;;;;11.50;2.50;;;21.50;99.90;;;;;;5075709;28;20415;-83
2021/03/10 06:57:07;;;;;;;13.20;2.90;;;21.50;99.90;;;;;;5073157;28;20404;-82
2021/03/10 06:59:47;;;;;;;15.68;3.22;;;21.50;99.90;;;;;;5083436;28;20391;-83
2021/03/10 07:02:19;;;;;;;15.15;2.90;;;21.50;99.90;;;;;;5067874;28;20398;-82
2021/03/10 07:04:52;;;;;;;11.73;3.15;;;21.60;99.90;;;;;;5079825;28;20389;-83
2021/03/10 07:07:19;;;;;;;9.32;2.80;;;21.50;99.90;;;;;;5073301;28;20887;-83
2021/03/10 07:09:46;;;;;;;13.37;3.03;;;21.30;99.90;;;;;;5075170;28;20389;-84
2021/03/10 07:12:16;;;;;;;12.70;3.08;;;21.30;99.90;;;;;;5065764;28;20451;-82
2021/03/10 07:14:43;;;;;;;14.32;3.20;;;21.30;99.90;;;;;;5074764;28;20418;-83
2021/03/10 07:17:12;;;;;;;14.13;3.13;;;21.30;99.90;;;;;;5075992;28;20409;-83
2021/03/10 07:19:41;;;;;;;13.80;3.40;;;21.30;99.90;;;;;;5069972;28;20410;-83
2021/03/10 07:22:30;;;;;;;11.82;3.03;;;21.30;99.90;;;;;;5060245;28;20401;-82
2021/03/10 07:25:14;;;;;;;15.90;3.08;;;21.30;99.90;;;;;;5071771;28;20406;-83
2021/03/10 07:28:12;;;;;;;13.20;3.10;;;21.30;99.90;;;;;;5072087;28;20378;-83
2021/03/10 07:30:49;;;;;;;11.93;2.75;;;21.30;99.90;;;;;;5073972;28;20777;-82
2021/03/10 07:33:18;;;;;;;12.50;3.20;;;21.30;99.90;;;;;;5069088;28;20385;-82
2021/03/10 07:36:01;;;;;;;13.32;3.45;;;21.30;99.90;;;;;;5102335;28;20441;-81
2021/03/10 07:38:37;;;;;;;11.00;2.65;;;21.20;99.90;;;;;;5077317;28;20404;-82
2021/03/10 07:41:14;;;;;;;9.50;2.47;;;21.20;99.90;;;;;;5089170;28;20389;-81
2021/03/10 07:43:42;;;;;;;8.82;2.90;;;21.10;99.90;;;;;;5069307;28;20396;-81
2021/03/10 07:46:30;;;;;;;11.68;3.15;;;21.00;99.90;;;;;;5068257;28;20390;-82
2021/03/10 07:48:58;;;;;;;12.82;3.30;;;21.00;99.90;;;;;;5077269;28;20409;-82
2021/03/10 07:51:35;;;;;;;9.93;2.55;;;21.00;99.90;;;;;;5071284;28;20473;-82
2021/03/10 07:54:15;;;;;;;11.77;2.72;;;21.00;99.90;;;;;;5068590;28;20790;-82
2021/03/10 07:56:42;;;;;;;15.02;3.00;;;21.00;99.90;;;;;;5070196;28;20821;-84
2021/03/10 07:59:16;;;;;;;10.38;3.03;;;21.00;99.90;;;;;;5084674;28;20947;-83
2021/03/10 08:01:43;;;;;;;9.43;2.70;;;20.90;99.90;;;;;;5078044;28;20382;-82
2021/03/10 08:04:19;;;;;;;15.00;3.40;;;20.90;99.90;;;;;;5070042;28;20449;-83
2021/03/10 08:06:52;;;;;;;12.77;2.92;;;20.90;99.90;;;;;;5069858;28;20435;-81
2021/03/10 08:09:22;;;;;;;12.05;2.78;;;20.90;99.90;;;;;;5061978;28;20789;-82
2021/03/10 08:12:02;;;;;;;8.73;2.53;;;20.80;99.90;;;;;;5069547;28;20370;-82
2021/03/10 08:14:49;;;;;;;7.90;2.95;;;20.80;99.90;;;;;;5080847;28;20396;-82
2021/03/10 08:17:24;;;;;;;11.90;3.00;;;20.70;99.90;;;;;;5050648;28;20396;-82
2021/03/10 08:20:09;;;;;;;11.45;2.83;;;20.60;99.90;;;;;;5064265;28;20390;-84
2021/03/10 08:22:37;;;;;;;11.60;3.20;;;20.60;99.90;;;;;;5076627;28;20476;-83
2021/03/10 08:25:05;;;;;;;10.60;2.97;;;20.60;99.90;;;;;;5086710;28;20741;-82
2021/03/10 08:27:33;;;;;;;9.95;2.90;;;20.50;99.90;;;;;;5077951;28;20396;-83
2021/03/10 08:30:03;;;;;;;13.50;2.97;;;20.50;99.90;;;;;;5086342;28;20427;-84
2021/03/10 08:32:31;;;;;;;10.98;3.20;;;20.40;99.90;;;;;;5072328;28;20488;-83
2021/03/10 08:35:11;;;;;;;12.27;3.25;;;20.40;99.90;;;;;;5088879;28;20484;-83
2021/03/10 08:37:43;;;;;;;14.05;3.58;;;20.40;99.90;;;;;;5085159;28;20396;-83
2021/03/10 08:40:17;;;;;;;12.90;3.10;;;20.40;99.90;;;;;;5080351;28;20419;-83
2021/03/10 08:42:47;;;;;;;9.43;2.70;;;20.30;99.90;;;;;;5078696;28;20830;-82
2021/03/10 08:45:26;;;;;;;13.05;3.05;;;20.30;99.90;;;;;;5087215;28;20392;-83
2021/03/10 08:48:07;;;;;;;13.43;3.42;;;20.30;99.90;;;;;;5091302;28;20483;-83
2021/03/10 08:50:37;;;;;;;11.47;3.30;;;20.20;99.90;;;;;;5082812;28;20508;-83
2021/03/10 08:53:06;;;;;;;13.23;3.05;;;20.20;99.90;;;;;;5094518;28;20411;-83
2021/03/10 08:55:33;;;;;;;8.30;2.70;;;20.20;99.90;;;;;;5064569;28;20382;-83
2021/03/10 08:58:11;;;;;;;11.03;3.20;;;20.20;99.90;;;;;;5069643;28;20378;-84
2021/03/10 09:00:40;;;;;;;14.35;3.28;;;20.20;99.90;;;;;;5067482;28;20374;-83
2021/03/10 09:03:15;;;;;;;10.60;3.03;;;20.20;99.90;;;;;;5067981;28;20745;-83
2021/03/10 09:05:43;;;;;;;7.60;2.55;;;20.20;99.90;;;;;;5066370;28;20378;-83
2021/03/10 09:08:13;;;;;;;15.23;3.30;;;20.20;99.90;;;;;;5067214;28;20361;-84
2021/03/10 09:10:47;;;;;;;10.70;2.92;;;20.30;99.90;;;;;;5067437;28;20717;-83
2021/03/10 09:13:14;;;;;;;11.00;3.78;;;20.30;99.90;;;;;;5067063;28;20374;-83
2021/03/10 09:16:07;;;;;;;;;;;;;;;;;;;;;
2021/03/10 09:18:37;;;;;;;10.13;2.95;;;20.30;99.90;;;;;;5046755;28;20733;-82
2021/03/10 09:21:04;;;;;;;12.23;3.15;;;20.30;99.90;;;;;;5079535;28;20398;-83
2021/03/10 09:23:32;;;;;;;9.65;3.13;;;20.20;99.90;;;;;;5047189;28;20381;-84
2021/03/10 09:25:59;;;;;;;11.50;3.22;;;20.20;99.90;;;;;;5047768;28;20390;-83
2021/03/10 09:28:35;;;;;;;11.77;3.25;;;20.20;99.90;;;;;;5058448;28;20447;-83
2021/03/10 09:31:13;;;;;;;11.02;3.20;;;20.20;99.90;;;;;;5066024;28;20962;-84
2021/03/10 09:33:41;;;;;;;16.05;3.42;;;20.20;99.90;;;;;;5066904;28;20367;-83
2021/03/10 09:36:09;;;;;;;14.32;3.08;;;20.20;99.90;;;;;;5060591;28;20409;-82
2021/03/10 09:38:36;;;;;;;12.37;3.23;;;20.20;99.90;;;;;;5066311;28;20481;-83
2021/03/10 09:41:05;;;;;;;11.50;3.30;;;20.20;99.90;;;;;;5064664;28;20737;-83
2021/03/10 09:43:34;;;;;;;13.82;3.28;;;20.20;99.90;;;;;;5065950;28;20382;-83
2021/03/10 09:46:06;;;;;;;10.93;2.92;;;20.20;99.90;;;;;;5066836;28;20385;-83
2021/03/10 09:48:39;;;;;;;13.23;3.10;;;20.20;99.90;;;;;;5067650;28;20440;-83
2021/03/10 09:51:09;;;;;;;11.25;2.63;;;20.20;99.90;;;;;;5066460;28;20382;-84
2021/03/10 09:53:44;;;;;;;12.50;2.90;;;20.20;99.90;;;;;;5064595;28;20982;-84
2021/03/10 09:56:22;;;;;;;11.07;2.88;;;20.30;99.90;;;;;;5065919;28;20402;-84
2021/03/10 09:58:59;;;;;;;10.65;3.10;;;20.30;99.90;;;;;;5066425;28;20382;-83
2021/03/10 10:01:28;;;;;;;10.10;2.80;;;20.30;99.90;;;;;;5066241;28;20429;-83
2021/03/10 10:03:58;;;;;;;10.35;3.03;;;20.30;99.90;;;;;;5066091;28;20748;-82
2021/03/10 10:06:25;;;;;;;10.40;3.03;;;20.30;99.90;;;;;;5066042;28;20385;-82
2021/03/10 10:08:52;;;;;;;11.05;2.97;;;20.20;99.90;;;;;;5064655;28;20737;-82
2021/03/10 10:11:20;;;;;;;11.10;3.20;;;20.20;99.90;;;;;;5066100;28;20563;-84
2021/03/10 10:13:49;;;;;;;11.88;3.38;;;20.30;99.90;;;;;;5074676;28;20423;-84
2021/03/10 10:16:17;;;;;;;12.43;2.92;;;20.20;99.90;;;;;;5065738;28;20410;-83
2021/03/10 10:18:45;;;;;;;11.07;3.15;;;20.30;99.90;;;;;;5065973;28;20374;-82
2021/03/10 10:21:13;;;;;;;12.07;2.88;;;20.30;99.90;;;;;;5066016;28;20396;-82
2021/03/10 10:23:40;;;;;;;9.65;3.17;;;20.30;99.90;;;;;;5068035;28;20396;-83
2021/03/10 10:26:07;;;;;;;11.32;3.40;;;20.30;99.90;;;;;;5076897;28;20384;-82
2021/03/10 10:28:34;;;;;;;11.75;3.00;;;20.30;99.90;;;;;;5081507;28;20395;-82
2021/03/10 10:31:01;;;;;;;11.23;3.10;;;20.20;99.90;;;;;;5070802;28;20386;-82
2021/03/10 10:33:28;;;;;;;9.73;2.80;;;20.30;99.90;;;;;;5067569;28;20473;-82
2021/03/10 10:35:55;;;;;;;12.50;2.80;;;20.30;99.90;;;;;;5068573;28;20995;-81
2021/03/10 10:38:22;;;;;;;12.90;3.28;;;20.30;99.90;;;;;;5070213;28;20398;-82
2021/03/10 10:40:49;;;;;;;8.13;2.83;;;20.30;99.90;;;;;;5066071;28;20397;-83
2021/03/10 10:43:16;;;;;;;14.85;3.47;;;20.30;99.90;;;;;;5068421;28;20434;-81
2021/03/10 10:45:44;;;;;;;10.15;2.80;;;20.30;99.90;;;;;;5071098;28;20387;-83
2021/03/10 10:48:11;;;;;;;12.90;3.20;;;20.20;99.90;;;;;;5080346;28;20420;-82
2021/03/10 10:50:38;;;;;;;10.80;3.20;;;20.20;99.90;;;;;;5075427;28;20394;-82
2021/03/10 10:53:05;;;;;;;12.73;3.33;;;20.20;99.90;;;;;;5074556;28;21006;-82
2021/03/10 10:55:32;;;;;;;11.90;3.70;;;20.10;99.90;;;;;;5069030;28;20708;-83
2021/03/10 10:58:00;;;;;;;12.20;3.50;;;20.10;99.90;;;;;;5081979;28;20450;-82
2021/03/10 11:00:28;;;;;;;15.10;3.47;;;20.10;99.90;;;;;;5078558;28;20724;-82
2021/03/10 11:02:55;;;;;;;14.20;3.08;;;20.10;99.90;;;;;;5079201;28;20984;-83
2021/03/10 11:05:22;;;;;;;10.67;3.30;;;20.10;99.90;;;;;;5069279;28;20891;-82
2021/03/10 11:07:49;;;;;;;9.88;3.22;;;20.00;99.90;;;;;;5068774;28;21134;-82
2021/03/10 11:10:16;;;;;;;10.38;3.28;;;20.00;99.90;;;;;;5069222;28;20388;-82
2021/03/10 11:12:43;;;;;;;12.43;3.08;;;20.00;99.90;;;;;;5067356;28;20394;-83
2021/03/10 11:15:10;;;;;;;13.43;3.50;;;20.00;99.90;;;;;;5098760;28;20394;-81
2021/03/10 11:17:38;;;;;;;13.57;3.15;;;20.00;99.90;;;;;;5067724;28;20921;-84
2021/03/10 11:20:08;;;;;;;10.98;3.00;;;20.00;99.90;;;;;;5070850;28;20389;-83
2021/03/10 11:22:36;;;;;;;11.55;3.10;;;20.00;99.90;;;;;;5071550;28;20393;-83
2021/03/10 11:25:07;;;;;;;8.50;3.00;;;20.00;99.90;;;;;;5071890;28;20455;-83
2021/03/10 11:27:34;;;;;;;11.20;3.57;;;20.00;99.90;;;;;;5076726;28;20398;-82
2021/03/10 11:30:01;;;;;;;12.02;3.20;;;20.00;99.90;;;;;;5082497;28;21003;-82
2021/03/10 11:32:28;;;;;;;9.95;3.03;;;20.00;99.90;;;;;;5088092;28;20422;-81
2021/03/10 11:34:55;;;;;;;13.30;3.60;;;20.00;99.90;;;;;;5082218;28;20485;-82
2021/03/10 11:37:22;;;;;;;10.85;3.67;;;20.00;99.90;;;;;;5070800;28;20409;-83
2021/03/10 11:39:49;;;;;;;10.13;3.47;;;20.00;99.90;;;;;;5079419;28;20392;-83
2021/03/10 11:42:16;;;;;;;9.60;3.55;;;20.10;99.90;;;;;;5072694;28;20429;-83
2021/03/10 11:44:43;;;;;;;12.48;3.75;;;20.10;99.90;;;;;;5071918;28;20378;-83
2021/03/10 11:47:10;;;;;;;12.07;3.10;;;20.00;99.90;;;;;;5070695;28;20386;-83
2021/03/10 11:49:37;;;;;;;10.40;3.28;;;20.10;99.90;;;;;;5071298;28;20885;-83
2021/03/10 11:52:05;;;;;;;9.13;3.08;;;20.10;99.90;;;;;;5072280;28;20400;-84
2021/03/10 11:54:32;;;;;;;9.97;3.00;;;20.10;99.90;;;;;;5072283;28;20985;-83
2021/03/10 11:56:59;;;;;;;12.90;3.30;;;20.10;99.90;;;;;;5088326;28;20942;-83
2021/03/10 11:59:27;;;;;;;9.93;3.20;;;20.10;99.90;;;;;;5078436;28;20451;-82
2021/03/10 12:01:54;;;;;;;11.30;3.28;;;20.10;99.90;;;;;;5083494;28;20408;-84
2021/03/10 12:04:21;;;;;;;9.90;2.88;;;20.10;99.90;;;;;;5071218;28;20893;-84
2021/03/10 12:06:48;;;;;;;11.85;2.90;;;20.20;99.90;;;;;;5071029;28;20819;-83
2021/03/10 12:09:17;;;;;;;10.75;3.20;;;20.20;99.90;;;;;;5071422;28;20374;-83
2021/03/10 12:11:45;;;;;;;11.63;3.38;;;20.20;99.90;;;;;;5080113;28;20384;-83
2021/03/10 12:14:12;;;;;;;7.88;2.97;;;20.20;99.90;;;;;;5064624;28;20918;-84
2021/03/10 12:16:40;;;;;;;10.13;3.20;;;20.20;99.90;;;;;;5065722;28;20405;-84
2021/03/10 12:19:07;;;;;;;6.43;3.10;;;20.30;99.90;;;;;;5071342;28;20470;-84
2021/03/10 12:21:34;;;;;;;10.90;2.93;;;20.30;99.90;;;;;;5069990;28;20406;-84
2021/03/10 12:24:01;;;;;;;13.60;3.23;;;20.30;99.90;;;;;;5069811;28;20899;-84
2021/03/10 12:26:28;;;;;;;13.27;2.90;;;20.40;99.90;;;;;;5076946;28;20403;-85
2021/03/10 12:28:55;;;;;;;9.60;3.00;;;20.40;99.90;;;;;;5077059;28;20514;-85
2021/03/10 12:31:22;;;;;;;7.57;2.87;;;20.40;99.90;;;;;;5071488;28;20402;-84
2021/03/10 12:33:49;;;;;;;8.97;3.00;;;20.40;99.90;;;;;;5074842;28;20444;-84
2021/03/10 12:36:16;;;;;;;9.60;2.90;;;20.40;99.90;;;;;;5057443;28;20408;-84
2021/03/10 12:38:43;;;;;;;10.53;3.60;;;20.40;99.90;;;;;;5056350;28;20393;-84
2021/03/10 12:41:10;;;;;;;9.88;3.35;;;20.40;99.90;;;;;;5055593;28;20394;-84
2021/03/10 12:43:37;;;;;;;12.43;3.65;;;20.40;99.90;;;;;;5048184;28;20487;-85
2021/03/10 12:46:04;;;;;;;10.57;3.15;;;20.40;99.90;;;;;;5054863;28;20884;-86
2021/03/10 12:48:31;;;;;;;9.10;2.90;;;20.40;99.90;;;;;;5054508;28;20497;-82
2021/03/10 12:50:58;;;;;;;8.40;3.42;;;20.40;99.90;;;;;;5056018;28;20395;-85
2021/03/10 12:53:25;;;;;;;10.32;3.28;;;20.40;99.90;;;;;;5040688;28;20817;-84
2021/03/10 12:55:52;;;;;;;9.55;3.13;;;20.40;99.90;;;;;;5044426;28;20427;-84